Time;durP1;ratioP1;P1;durP2;ratioP2;P2;SDS_P1;SDS_P2;PMS_P1;PMS_P2;Temp;Humidity;BMP_temperature;BMP_pressure;BME280_temperature;BME280_humidity;BME280_pressure;Samples;Min_cycle;Max_cycle;Signal;HPM_P1;HPM_P2
2022/03/26 00:02:17;;;;;;;25.95;13.60;;;;;;;7.28;59.89;103044.25;5030243;28;20068;-86
2022/03/26 00:04:42;;;;;;;26.95;13.20;;;;;;;7.25;59.79;103049.38;5037337;28;20045;-86
2022/03/26 00:07:07;;;;;;;29.17;14.23;;;;;;;7.23;60.53;103045.84;5032953;28;20025;-86
2022/03/26 00:09:32;;;;;;;28.23;14.02;;;;;;;7.19;60.73;103050.09;5033389;28;20033;-87
2022/03/26 00:11:58;;;;;;;28.10;13.75;;;;;;;7.17;60.72;103043.16;5040008;28;20090;-86
2022/03/26 00:14:23;;;;;;;24.35;13.48;;;;;;;7.14;60.61;103042.22;5038859;28;20401;-87
2022/03/26 00:16:48;;;;;;;25.25;13.63;;;;;;;7.09;60.53;103046.41;5022335;28;20048;-86
2022/03/26 00:19:14;;;;;;;22.13;13.00;;;;;;;7.04;60.94;103045.41;5038003;28;20036;-87
2022/03/26 00:21:40;;;;;;;25.88;13.43;;;;;;;6.99;61.13;103036.69;5035728;28;20057;-86
2022/03/26 00:24:06;;;;;;;29.95;14.32;;;;;;;6.96;61.13;103046.94;5017705;28;20111;-86
2022/03/26 00:26:32;;;;;;;30.05;14.07;;;;;;;6.93;61.35;103046.88;5036444;28;20383;-86
2022/03/26 00:28:57;;;;;;;33.75;14.05;;;;;;;6.93;61.62;103052.03;5033104;28;20576;-87
2022/03/26 00:31:22;;;;;;;26.63;13.40;;;;;;;6.91;61.53;103043.38;5033686;28;20030;-86
2022/03/26 00:33:47;;;;;;;24.42;14.05;;;;;;;6.87;61.39;103042.41;5031299;28;20037;-87
2022/03/26 00:36:13;;;;;;;29.10;14.48;;;;;;;6.83;61.71;103044.03;5033467;28;20087;-87
2022/03/26 00:38:38;;;;;;;29.90;14.27;;;;;;;6.81;62.14;103042.25;5032372;28;20035;-86
2022/03/26 00:41:03;;;;;;;28.00;14.50;;;;;;;6.81;61.89;103047.44;5030747;28;20025;-86
2022/03/26 00:43:29;;;;;;;30.27;14.35;;;;;;;6.80;62.12;103045.66;5034368;28;20048;-87
2022/03/26 00:45:54;;;;;;;30.25;14.80;;;;;;;6.73;62.76;103041.19;5034378;28;20035;-87
2022/03/26 00:48:20;;;;;;;28.77;13.73;;;;;;;6.70;62.16;103039.38;5030977;28;20044;-87
2022/03/26 00:50:45;;;;;;;27.08;13.43;;;;;;;6.65;61.14;103041.00;5031173;28;20108;-86
2022/03/26 00:53:10;;;;;;;25.67;13.60;;;;;;;6.60;61.84;103037.41;5033275;28;20203;-86
2022/03/26 00:55:36;;;;;;;29.73;13.63;;;;;;;6.55;62.32;103041.56;5031183;28;21699;-86
2022/03/26 00:58:02;;;;;;;30.30;14.05;;;;;;;6.49;62.39;103035.38;5030526;28;20040;-86
2022/03/26 01:00:27;;;;;;;32.83;14.48;;;;;;;6.46;62.63;103035.34;5031668;28;20037;-87
2022/03/26 01:02:53;;;;;;;31.88;14.23;;;;;;;6.46;62.64;103035.34;5032309;28;20389;-86
2022/03/26 01:05:18;;;;;;;26.17;13.07;;;;;;;6.45;62.66;103031.00;5033359;28;20059;-87
2022/03/26 01:07:43;;;;;;;26.05;12.98;;;;;;;6.45;62.47;103023.25;5029159;28;20037;-86
2022/03/26 01:10:09;;;;;;;26.10;14.10;;;;;;;6.43;62.19;103027.47;5031896;28;20036;-86
2022/03/26 01:12:35;;;;;;;27.77;13.75;;;;;;;6.38;63.10;103029.97;5013845;28;20029;-86
2022/03/26 01:15:01;;;;;;;27.88;13.40;;;;;;;6.34;63.80;103028.13;5029107;28;20438;-87
2022/03/26 01:17:26;;;;;;;26.45;13.68;;;;;;;6.34;63.55;103024.63;5032094;28;20040;-86
2022/03/26 01:19:52;;;;;;;26.27;13.57;;;;;;;6.31;63.28;103025.44;5031485;28;20057;-86
2022/03/26 01:22:17;;;;;;;28.58;13.48;;;;;;;6.24;63.68;103026.09;5015153;28;20448;-86
2022/03/26 01:24:43;;;;;;;27.95;13.20;;;;;;;6.19;63.84;103020.81;5032743;28;20035;-86
2022/03/26 01:27:08;;;;;;;29.27;14.40;;;;;;;6.16;64.28;103031.03;5052954;28;20075;-86
2022/03/26 01:29:34;;;;;;;27.13;14.40;;;;;;;6.16;63.65;103038.81;5034389;28;20030;-86
2022/03/26 01:31:59;;;;;;;30.38;14.20;;;;;;;6.11;64.06;103037.81;5029487;28;20040;-86
2022/03/26 01:34:26;;;;;;;28.35;13.80;;;;;;;6.10;64.55;103046.41;5019586;28;20032;-87
2022/03/26 01:36:52;;;;;;;29.85;13.38;;;;;;;6.09;64.53;103039.47;5043496;28;20027;-86
2022/03/26 01:39:20;;;;;;;28.80;14.05;;;;;;;6.05;64.96;103035.03;5031761;28;20037;-86
2022/03/26 01:41:46;;;;;;;29.15;13.38;;;;;;;6.03;63.77;103034.13;5021501;28;20029;-86
2022/03/26 01:44:13;;;;;;;34.10;14.82;;;;;;;6.00;64.83;103037.50;5031054;28;21884;-87
2022/03/26 01:46:48;;;;;;;31.33;13.45;;;;;;;6.01;64.18;103038.38;5029396;28;20535;-86
2022/03/26 01:49:14;;;;;;;29.80;13.55;;;;;;;5.97;64.76;103045.13;5030913;28;20025;-87
2022/03/26 01:51:39;;;;;;;29.52;14.27;;;;;;;5.94;64.52;103037.28;5032633;28;20103;-87
2022/03/26 01:54:04;;;;;;;29.50;13.48;;;;;;;5.93;64.68;103041.59;5030976;28;20040;-86
2022/03/26 01:56:30;;;;;;;25.05;13.52;;;;;;;5.93;64.14;103048.44;5027960;28;20039;-86
2022/03/26 01:58:55;;;;;;;33.25;13.60;;;;;;;5.90;63.84;103045.78;5042223;28;20031;-86
2022/03/26 02:01:21;;;;;;;29.90;13.82;;;;;;;5.84;64.02;103036.13;5030027;28;20435;-86
2022/03/26 02:03:46;;;;;;;33.13;14.32;;;;;;;5.81;64.16;103041.22;5032786;28;20029;-86
2022/03/26 02:06:12;;;;;;;23.92;12.85;;;;;;;5.80;64.38;103036.91;5030061;28;20096;-86
2022/03/26 02:08:37;;;;;;;26.38;13.30;;;;;;;5.78;64.69;103038.56;5030986;28;20095;-86
2022/03/26 02:11:03;;;;;;;27.05;12.93;;;;;;;5.77;64.72;103042.81;5030049;28;20532;-87
2022/03/26 02:14:08;;;;;;;27.23;13.00;;;;;;;5.79;62.80;103045.47;5028441;28;20472;-87
2022/03/26 02:16:36;;;;;;;26.65;13.20;;;;;;;5.73;64.88;103040.13;4944949;28;20035;-86
2022/03/26 02:19:03;;;;;;;25.92;12.50;;;;;;;5.70;65.40;103045.19;4945768;28;20425;-86
2022/03/26 02:21:29;;;;;;;25.83;13.13;;;;;;;5.70;65.47;103040.03;4989052;28;20053;-86
2022/03/26 02:23:55;;;;;;;26.00;12.40;;;;;;;5.69;64.67;103043.44;5030259;28;20025;-87
2022/03/26 02:26:22;;;;;;;26.17;12.63;;;;;;;5.67;64.95;103045.97;5027189;28;20538;-86
2022/03/26 02:28:49;;;;;;;27.33;13.57;;;;;;;5.66;64.92;103048.50;5009776;28;20045;-86
2022/03/26 02:31:15;;;;;;;31.52;13.55;;;;;;;5.61;65.16;103038.94;5028614;28;20022;-86
2022/03/26 02:33:42;;;;;;;29.27;13.63;;;;;;;5.57;66.07;103039.66;5029470;28;20534;-86
2022/03/26 02:36:08;;;;;;;29.50;12.85;;;;;;;5.56;65.74;103042.16;5027037;28;20044;-87
2022/03/26 02:38:33;;;;;;;24.70;13.20;;;;;;;5.53;66.18;103036.94;5032368;28;21437;-86
2022/03/26 02:40:59;;;;;;;24.73;12.80;;;;;;;5.52;66.29;103041.22;5030299;28;20431;-86
2022/03/26 02:43:25;;;;;;;28.83;12.70;;;;;;;5.50;66.13;103029.94;5032653;28;20147;-87
2022/03/26 02:45:50;;;;;;;27.95;13.23;;;;;;;5.49;66.11;103035.09;5031803;28;20100;-86
2022/03/26 02:48:15;;;;;;;24.85;12.93;;;;;;;5.48;66.27;103034.19;5040480;28;20036;-86
2022/03/26 02:50:43;;;;;;;25.33;12.68;;;;;;;5.46;66.29;103030.72;5029812;28;20037;-87
2022/03/26 02:53:09;;;;;;;27.23;13.00;;;;;;;5.44;65.64;103038.38;5027432;28;20108;-86
2022/03/26 02:55:35;;;;;;;28.50;13.65;;;;;;;5.40;66.30;103033.09;5033816;28;20061;-86
2022/03/26 02:58:01;;;;;;;30.95;13.48;;;;;;;5.37;67.00;103038.16;5035229;28;20064;-86
2022/03/26 03:00:26;;;;;;;27.98;13.45;;;;;;;5.30;66.92;103034.50;5013222;28;20028;-86
2022/03/26 03:02:52;;;;;;;27.95;13.48;;;;;;;5.26;67.40;103036.13;5012787;28;20026;-86
2022/03/26 03:05:18;;;;;;;26.30;13.40;;;;;;;5.26;67.05;103036.13;5030041;28;20022;-86
2022/03/26 03:07:43;;;;;;;25.38;13.05;;;;;;;5.22;66.48;103029.09;5030973;28;20029;-87
2022/03/26 03:10:10;;;;;;;31.35;13.27;;;;;;;5.24;67.21;103024.88;5013476;28;20445;-86
2022/03/26 03:12:35;;;;;;;25.85;12.90;;;;;;;5.24;66.45;103029.13;5032431;28;20021;-86
2022/03/26 03:15:00;;;;;;;28.05;13.43;;;;;;;5.23;66.43;103028.28;5017571;28;20121;-86
2022/03/26 03:17:26;;;;;;;25.85;13.10;;;;;;;5.20;66.89;103025.59;5013012;28;20030;-86
2022/03/26 03:19:51;;;;;;;25.85;13.85;;;;;;;5.20;67.29;103028.16;5029764;28;20021;-86
2022/03/26 03:22:16;;;;;;;33.95;13.18;;;;;;;5.18;66.86;103031.53;5027861;28;20446;-86
2022/03/26 03:24:42;;;;;;;27.20;12.57;;;;;;;5.17;66.95;103028.06;5027982;28;20135;-86
2022/03/26 03:27:07;;;;;;;26.80;13.35;;;;;;;5.18;67.43;103034.13;5029963;28;20041;-86
2022/03/26 03:29:33;;;;;;;27.90;12.68;;;;;;;5.17;67.15;103033.22;5012851;28;20124;-85
2022/03/26 03:31:58;;;;;;;23.45;12.68;;;;;;;5.16;67.02;103041.78;5029637;28;20037;-86
2022/03/26 03:34:23;;;;;;;27.98;13.40;;;;;;;5.14;67.05;103040.88;5027242;28;20105;-86
2022/03/26 03:36:49;;;;;;;28.10;12.98;;;;;;;5.15;66.77;103040.03;5029783;28;20037;-87
2022/03/26 03:39:14;;;;;;;29.08;14.85;;;;;;;5.14;66.90;103044.34;5027811;28;20033;-86
2022/03/26 03:41:39;;;;;;;31.95;13.82;;;;;;;5.05;66.85;103043.16;5032134;28;20059;-87
2022/03/26 03:44:06;;;;;;;30.40;13.88;;;;;;;4.98;67.60;103042.94;5030300;28;20047;-86
2022/03/26 03:46:32;;;;;;;27.02;13.75;;;;;;;4.95;67.96;103053.16;5026378;28;20114;-86
2022/03/26 03:48:58;;;;;;;28.40;14.05;;;;;;;4.90;68.43;103041.81;5012208;28;20069;-86
2022/03/26 03:51:23;;;;;;;30.58;13.60;;;;;;;4.90;68.24;103049.56;5033364;28;20448;-86
2022/03/26 03:53:48;;;;;;;27.33;13.25;;;;;;;4.90;68.32;103049.56;5031213;28;20076;-86
2022/03/26 03:56:14;;;;;;;27.08;13.73;;;;;;;4.89;68.78;103046.91;5030471;28;20044;-86
2022/03/26 03:58:39;;;;;;;28.55;13.77;;;;;;;4.90;68.24;103048.66;5035517;28;20030;-86
2022/03/26 04:01:04;;;;;;;26.35;14.05;;;;;;;4.90;68.56;103048.66;5035536;28;20038;-86
2022/03/26 04:03:30;;;;;;;29.17;13.23;;;;;;;4.91;68.72;103048.75;5032136;28;20041;-87
2022/03/26 04:05:55;;;;;;;30.70;13.98;;;;;;;4.92;68.04;103053.06;5017418;28;20051;-86
2022/03/26 04:08:21;;;;;;;30.13;14.10;;;;;;;4.92;68.03;103047.91;5032595;28;20068;-86
2022/03/26 04:10:47;;;;;;;33.63;14.25;;;;;;;4.94;68.10;103050.53;5041477;28;20037;-86
2022/03/26 04:13:12;;;;;;;31.40;14.32;;;;;;;4.92;67.57;103049.59;5037032;28;20054;-86
2022/03/26 04:15:38;;;;;;;27.38;13.93;;;;;;;4.92;68.09;103047.91;5044153;28;20068;-86
2022/03/26 04:18:03;;;;;;;29.02;13.77;;;;;;;4.90;68.34;103048.66;5021057;28;20124;-86
2022/03/26 04:20:29;;;;;;;28.42;12.52;;;;;;;4.86;68.16;103051.19;5035426;28;20040;-86
2022/03/26 04:22:54;;;;;;;26.35;14.05;;;;;;;4.88;68.06;103045.16;5035831;28;20052;-86
2022/03/26 04:25:19;;;;;;;32.78;13.77;;;;;;;4.86;68.17;103047.69;5014157;28;20029;-87
2022/03/26 04:27:46;;;;;;;29.10;14.00;;;;;;;4.83;68.35;103052.75;5031575;28;21881;-86
2022/03/26 04:30:12;;;;;;;33.08;13.98;;;;;;;4.80;68.59;103053.53;5039359;28;20033;-86
2022/03/26 04:32:38;;;;;;;34.13;14.60;;;;;;;4.75;68.91;103054.22;5039537;28;20032;-86
2022/03/26 04:35:04;;;;;;;32.80;14.27;;;;;;;4.74;68.60;103053.31;5033357;28;20116;-86
2022/03/26 04:37:29;;;;;;;33.40;14.20;;;;;;;4.70;68.91;103052.34;5034517;28;20476;-86
2022/03/26 04:39:54;;;;;;;28.50;13.27;;;;;;;4.67;69.04;103052.22;5037517;28;20037;-86
2022/03/26 04:42:20;;;;;;;30.67;13.57;;;;;;;4.66;68.82;103045.31;5032482;28;20496;-86
2022/03/26 04:44:45;;;;;;;27.50;13.40;;;;;;;4.67;68.65;103049.66;5036198;28;20451;-86
2022/03/26 04:47:10;;;;;;;27.90;13.80;;;;;;;4.65;68.63;103038.41;5033376;28;20439;-86
2022/03/26 04:49:36;;;;;;;27.90;14.00;;;;;;;4.60;69.15;103041.66;5040453;28;20547;-86
2022/03/26 04:52:01;;;;;;;26.70;13.57;;;;;;;4.58;68.86;103036.47;5035817;28;20368;-86
2022/03/26 04:54:27;;;;;;;29.70;14.20;;;;;;;4.56;68.91;103045.84;5032424;28;20514;-86
2022/03/26 04:56:52;;;;;;;32.40;14.40;;;;;;;4.53;68.80;103048.28;5031988;28;20152;-86
2022/03/26 04:59:17;;;;;;;31.67;14.45;;;;;;;4.50;69.01;103048.19;5035787;28;20025;-86
2022/03/26 05:01:44;;;;;;;27.63;13.77;;;;;;;4.48;69.28;103050.72;5032987;28;20029;-86
2022/03/26 05:04:11;;;;;;;30.08;14.25;;;;;;;4.47;69.41;103048.06;5014844;28;20032;-86
2022/03/26 05:06:36;;;;;;;32.97;14.57;;;;;;;4.43;69.38;103053.97;5031579;28;20025;-86
2022/03/26 05:09:02;;;;;;;32.87;14.73;;;;;;;4.40;69.44;103054.72;5034627;28;20024;-86
2022/03/26 05:11:28;;;;;;;33.97;14.63;;;;;;;4.40;69.56;103053.03;5034797;28;20120;-86
2022/03/26 05:13:53;;;;;;;32.17;13.98;;;;;;;4.35;69.22;103059.72;5033317;28;20086;-86
2022/03/26 05:16:18;;;;;;;47.75;14.13;;;;;;;4.33;69.56;103061.34;5031439;28;20028;-86
2022/03/26 05:18:43;;;;;;;34.73;14.00;;;;;;;4.29;69.56;103059.47;5037500;28;20112;-86
2022/03/26 05:21:09;;;;;;;34.30;14.35;;;;;;;4.28;69.92;103062.88;5022570;28;20494;-86
2022/03/26 05:23:35;;;;;;;30.80;14.70;;;;;;;4.26;70.25;103054.22;5038866;28;20021;-86
2022/03/26 05:26:01;;;;;;;30.50;13.40;;;;;;;4.27;69.88;103060.25;5037724;28;20090;-86
2022/03/26 05:28:26;;;;;;;33.50;13.80;;;;;;;4.27;69.72;103062.81;5031113;28;20209;-86
2022/03/26 05:30:51;;;;;;;31.67;12.90;;;;;;;4.25;69.82;103065.34;5032446;28;20384;-86
2022/03/26 05:33:17;;;;;;;33.17;13.70;;;;;;;4.25;69.75;103067.94;5037781;28;20013;-86
2022/03/26 05:35:42;;;;;;;26.98;13.30;;;;;;;4.25;70.05;103065.34;5033218;28;20030;-86
2022/03/26 05:38:08;;;;;;;28.83;13.50;;;;;;;4.25;69.66;103080.81;5033925;28;20025;-86
2022/03/26 05:40:33;;;;;;;26.13;12.70;;;;;;;4.25;69.98;103073.09;5029158;28;20383;-86
2022/03/26 05:42:59;;;;;;;30.35;14.27;;;;;;;4.29;69.59;103082.66;5027732;28;20026;-86
2022/03/26 05:45:24;;;;;;;34.43;14.93;;;;;;;4.33;70.06;103083.69;5012413;28;20163;-86
2022/03/26 05:47:55;;;;;;;30.23;13.87;;;;;;;4.31;70.29;103083.59;5026501;28;20041;-86
2022/03/26 05:50:20;;;;;;;29.80;13.40;;;;;;;4.31;70.00;103081.03;5033081;28;20022;-86
2022/03/26 05:52:45;;;;;;;31.75;13.48;;;;;;;4.30;70.33;103081.84;5031036;28;20044;-86
2022/03/26 05:55:11;;;;;;;27.38;13.48;;;;;;;4.30;70.37;103081.84;5029856;28;20091;-86
2022/03/26 05:57:36;;;;;;;27.20;13.30;;;;;;;4.32;69.74;103079.34;5027574;28;20528;-86
2022/03/26 06:00:04;;;;;;;25.17;13.45;;;;;;;4.35;69.96;103084.63;5031319;28;20461;-86
2022/03/26 06:02:29;;;;;;;30.87;13.77;;;;;;;4.38;68.99;103084.69;5031640;28;20033;-86
2022/03/26 06:04:54;;;;;;;28.90;14.27;;;;;;;4.40;69.92;103089.09;5030347;28;20041;-86
2022/03/26 06:07:20;;;;;;;28.60;13.53;;;;;;;4.45;70.43;103085.78;5027332;28;20025;-85
2022/03/26 06:09:45;;;;;;;29.02;13.63;;;;;;;4.49;70.34;103093.72;5029084;28;20028;-85
2022/03/26 06:12:10;;;;;;;23.77;12.67;;;;;;;4.51;69.88;103092.06;5031638;28;20022;-85
2022/03/26 06:14:36;;;;;;;33.72;13.77;;;;;;;4.55;69.62;103095.63;5035944;28;20383;-86
2022/03/26 06:17:01;;;;;;;29.45;13.57;;;;;;;4.57;69.98;103096.56;5032456;28;20044;-86
2022/03/26 06:19:27;;;;;;;28.77;13.63;;;;;;;4.60;69.79;103096.69;5028886;28;20032;-86
2022/03/26 06:21:53;;;;;;;29.15;13.73;;;;;;;4.63;69.75;103101.06;5029196;28;20025;-85
2022/03/26 06:24:19;;;;;;;32.95;14.18;;;;;;;4.69;69.42;103112.47;5033596;28;20112;-86
2022/03/26 06:26:47;;;;;;;31.85;14.13;;;;;;;4.76;68.84;103107.53;5033052;28;20151;-86
2022/03/26 06:29:13;;;;;;;33.42;15.43;;;;;;;4.82;68.85;103107.72;5029359;28;20041;-86
2022/03/26 06:31:38;;;;;;;32.25;14.82;;;;;;;4.88;68.82;103112.22;5030913;28;20465;-86
2022/03/26 06:34:04;;;;;;;31.60;14.10;;;;;;;4.95;68.27;103117.63;5029501;28;20048;-86
2022/03/26 06:36:30;;;;;;;31.67;14.82;;;;;;;4.98;68.61;103114.31;5028246;28;20118;-86
2022/03/26 06:38:56;;;;;;;29.83;14.68;;;;;;;5.05;69.09;103115.41;5029428;28;20025;-86
2022/03/26 06:41:21;;;;;;;32.63;14.60;;;;;;;5.12;69.72;103117.38;5030897;28;20498;-86
2022/03/26 06:43:47;;;;;;;31.48;14.82;;;;;;;5.18;69.76;103116.69;5030060;28;20121;-86
2022/03/26 06:46:12;;;;;;;33.17;14.85;;;;;;;5.24;69.81;103111.72;5029064;28;20111;-86
2022/03/26 06:48:38;;;;;;;33.20;14.48;;;;;;;5.32;69.88;103115.44;5031673;28;20029;-86
2022/03/26 06:51:08;;;;;;;31.02;15.32;;;;;;;5.38;69.53;103123.38;5013353;28;20033;-86
2022/03/26 06:53:34;;;;;;;32.97;15.80;;;;;;;5.45;68.71;103121.91;5029621;28;20033;-86
2022/03/26 06:55:59;;;;;;;37.35;16.30;;;;;;;5.52;69.20;103116.09;5031744;28;20456;-86
2022/03/26 06:58:25;;;;;;;33.35;16.05;;;;;;;5.59;68.48;103122.31;5032944;28;20029;-86
2022/03/26 07:00:51;;;;;;;35.60;16.98;;;;;;;5.67;68.61;103122.56;5029086;28;20061;-87
2022/03/26 07:03:16;;;;;;;37.08;17.02;;;;;;;5.74;69.10;103122.78;5029149;28;21477;-87
2022/03/26 07:05:41;;;;;;;33.55;15.73;;;;;;;5.83;69.73;103123.94;5012071;28;20057;-86
2022/03/26 07:08:07;;;;;;;36.45;17.67;;;;;;;5.89;68.83;103130.16;5029215;28;20469;-86
2022/03/26 07:10:33;;;;;;;37.38;17.02;;;;;;;5.98;68.58;103126.13;5030999;28;20541;-86
2022/03/26 07:12:58;;;;;;;33.58;17.23;;;;;;;6.03;68.86;103122.88;5027707;28;20026;-86
2022/03/26 07:15:23;;;;;;;34.60;16.67;;;;;;;6.13;68.82;103130.88;5038432;28;20430;-86
2022/03/26 07:17:49;;;;;;;39.90;17.45;;;;;;;6.19;68.80;103131.94;5021006;28;20029;-86
2022/03/26 07:20:14;;;;;;;38.10;17.27;;;;;;;6.28;68.75;103133.06;5008337;28;21805;-86
2022/03/26 07:22:41;;;;;;;37.95;17.92;;;;;;;6.36;69.19;103132.44;5029001;28;20028;-86
2022/03/26 07:25:08;;;;;;;35.78;17.27;;;;;;;6.45;68.79;103130.94;5032608;28;20036;-87
2022/03/26 07:27:35;;;;;;;39.25;17.65;;;;;;;6.54;68.27;103131.22;5030491;28;20515;-86
2022/03/26 07:30:01;;;;;;;33.60;17.63;;;;;;;6.64;67.51;103132.34;5032153;28;20026;-86
2022/03/26 07:32:27;;;;;;;36.67;17.02;;;;;;;6.72;67.86;103133.44;5028628;28;20169;-86
2022/03/26 07:34:53;;;;;;;37.20;16.45;;;;;;;6.81;67.65;103131.09;5028548;28;20761;-86
2022/03/26 07:37:19;;;;;;;34.50;16.67;;;;;;;6.92;67.40;103127.91;5029472;28;20044;-86
2022/03/26 07:39:44;;;;;;;36.30;16.25;;;;;;;7.02;66.79;103132.50;5033272;28;20029;-86
2022/03/26 07:42:09;;;;;;;34.78;17.35;;;;;;;7.11;67.24;103127.56;5029868;28;20053;-86
2022/03/26 07:44:35;;;;;;;35.20;17.27;;;;;;;7.20;66.72;103128.63;5031891;28;20056;-86
2022/03/26 07:47:01;;;;;;;36.03;16.83;;;;;;;7.30;66.37;103130.63;5029911;28;20101;-86
2022/03/26 07:49:26;;;;;;;32.28;15.55;;;;;;;7.38;65.65;103136.84;5031997;28;20046;-86
2022/03/26 07:51:51;;;;;;;40.35;15.70;;;;;;;7.48;65.04;103135.38;5031312;28;20097;-86
2022/03/26 07:54:17;;;;;;;31.67;16.33;;;;;;;7.57;65.72;103134.72;5033835;28;20029;-86
2022/03/26 07:56:42;;;;;;;30.73;15.85;;;;;;;7.66;65.46;103139.25;5036256;28;20025;-87
2022/03/26 07:59:07;;;;;;;32.22;16.10;;;;;;;7.73;64.94;103131.66;5030986;28;20026;-87
2022/03/26 08:01:33;;;;;;;33.38;16.67;;;;;;;7.82;65.25;103137.88;5035129;28;20057;-86
2022/03/26 08:03:59;;;;;;;34.17;16.40;;;;;;;7.92;65.23;103141.56;5030713;28;20152;-86
2022/03/26 08:06:24;;;;;;;32.08;16.20;;;;;;;7.98;64.51;103137.41;5034975;28;20523;-86
2022/03/26 08:08:49;;;;;;;35.08;16.73;;;;;;;8.06;64.10;103137.56;5029704;28;20036;-86
2022/03/26 08:11:16;;;;;;;35.00;16.58;;;;;;;8.15;63.63;103139.47;5014180;28;20031;-87
2022/03/26 08:13:41;;;;;;;38.85;17.83;;;;;;;8.20;63.74;103143.03;5028768;28;20025;-86
2022/03/26 08:16:07;;;;;;;34.10;16.52;;;;;;;8.27;63.53;103144.91;5033220;28;20783;-86
2022/03/26 08:18:33;;;;;;;38.90;17.55;;;;;;;8.34;64.08;103149.41;5033378;28;20108;-85
2022/03/26 08:20:58;;;;;;;43.30;18.48;;;;;;;8.43;63.55;103155.59;5031428;28;20109;-86
2022/03/26 08:23:23;;;;;;;31.73;16.73;;;;;;;8.49;64.12;103154.03;5033586;28;20025;-86
2022/03/26 08:28:33;;;;;;;35.47;17.63;;;;;;;8.66;63.22;103156.09;5039120;28;20203;-86
2022/03/26 08:30:58;;;;;;;38.55;18.25;;;;;;;8.75;62.71;103163.19;5034312;28;20690;-86
2022/03/26 08:33:23;;;;;;;35.60;16.95;;;;;;;8.86;61.87;103172.09;5033350;28;20036;-86
2022/03/26 08:35:49;;;;;;;34.25;16.08;;;;;;;8.93;61.82;103162.69;5030005;28;20064;-86
2022/03/26 08:38:14;;;;;;;35.50;15.90;;;;;;;9.02;62.49;103170.63;5032939;28;20033;-86
2022/03/26 08:40:39;;;;;;;32.30;16.05;;;;;;;9.12;62.04;103169.06;5032897;28;20060;-86
2022/03/26 08:43:06;;;;;;;33.20;14.68;;;;;;;9.21;61.76;103169.25;5031827;28;20033;-86
2022/03/26 08:45:32;;;;;;;34.78;15.35;;;;;;;9.32;61.53;103166.81;5035293;28;20104;-86
2022/03/26 08:47:57;;;;;;;31.50;15.38;;;;;;;9.43;61.41;103166.16;5030947;28;20172;-86
2022/03/26 08:50:23;;;;;;;30.77;14.40;;;;;;;9.55;63.63;103175.03;5034268;28;20087;-86
2022/03/26 08:52:49;;;;;;;35.33;15.10;;;;;;;9.67;62.73;103171.72;5030610;28;20033;-86
2022/03/26 08:55:15;;;;;;;34.58;15.50;;;;;;;9.79;61.84;103170.19;5033982;28;20028;-86
2022/03/26 08:57:41;;;;;;;31.23;14.57;;;;;;;9.91;60.68;103172.06;5036331;28;20037;-86
2022/03/26 09:00:09;;;;;;;26.90;13.27;;;;;;;9.98;59.61;103161.81;5031083;28;20127;-86
2022/03/26 09:02:35;;;;;;;33.50;14.40;;;;;;;10.07;59.56;103168.88;5027268;28;20021;-85
2022/03/26 09:05:01;;;;;;;33.67;14.95;;;;;;;10.15;59.87;103166.38;5029113;28;20392;-86
2022/03/26 09:07:26;;;;;;;30.80;15.60;;;;;;;10.21;58.54;103169.03;5032244;28;20057;-86
2022/03/26 09:09:51;;;;;;;38.78;15.05;;;;;;;10.29;60.56;103179.53;5033553;28;20064;-86
2022/03/26 09:12:17;;;;;;;32.55;15.38;;;;;;;10.37;61.26;103177.94;5029095;28;20074;-86
2022/03/26 09:14:43;;;;;;;31.63;15.23;;;;;;;10.46;60.25;103172.84;5046872;28;20068;-86
2022/03/26 09:17:09;;;;;;;26.90;14.07;;;;;;;10.55;60.79;103172.09;5040421;28;20395;-86
2022/03/26 09:19:34;;;;;;;29.65;13.63;;;;;;;10.63;58.64;103170.47;5044523;28;20036;-86
2022/03/26 09:22:00;;;;;;;26.15;13.18;;;;;;;10.71;59.38;103164.44;5031103;28;20025;-85
2022/03/26 09:24:25;;;;;;;26.20;12.50;;;;;;;10.77;58.59;103167.13;5038816;28;20021;-86
2022/03/26 09:26:50;;;;;;;30.08;14.50;;;;;;;10.84;56.90;103165.47;5039686;28;20360;-86
2022/03/26 09:29:16;;;;;;;29.33;12.60;;;;;;;10.92;58.39;103167.31;5036569;28;20044;-86
2022/03/26 09:31:42;;;;;;;34.00;14.45;;;;;;;10.98;56.53;103171.69;5040876;28;20014;-86
2022/03/26 09:34:07;;;;;;;28.73;12.52;;;;;;;11.02;57.22;103173.47;5019539;28;20072;-87
2022/03/26 09:36:32;;;;;;;34.05;14.65;;;;;;;11.08;56.98;103176.16;5032738;28;20040;-86
2022/03/26 09:38:58;;;;;;;23.48;12.57;;;;;;;11.17;57.90;103169.28;5043623;28;20028;-86
2022/03/26 09:41:24;;;;;;;29.13;13.15;;;;;;;11.22;55.27;103170.19;5040963;28;20053;-87
2022/03/26 09:43:49;;;;;;;29.55;12.85;;;;;;;11.29;56.23;103171.97;5051240;28;20021;-87
2022/03/26 09:46:15;;;;;;;27.42;12.95;;;;;;;11.39;56.48;103167.72;5047147;28;20099;-86
2022/03/26 09:48:43;;;;;;;25.85;12.75;;;;;;;11.47;57.58;103166.06;5033186;28;20033;-86
2022/03/26 09:51:09;;;;;;;26.95;12.77;;;;;;;11.58;55.81;103171.38;5036994;28;20483;-88
2022/03/26 09:53:35;;;;;;;24.35;12.07;;;;;;;11.67;56.72;103171.41;5037226;28;20025;-87
2022/03/26 09:56:00;;;;;;;24.05;11.98;;;;;;;11.76;55.85;103173.22;5037846;28;20090;-88
2022/03/26 09:58:26;;;;;;;22.70;12.00;;;;;;;11.86;56.08;103168.09;5034464;28;20037;-88
2022/03/26 10:00:53;;;;;;;27.55;12.82;;;;;;;11.90;53.02;103164.59;5034620;28;20064;-88
2022/03/26 10:03:19;;;;;;;24.83;11.65;;;;;;;11.96;54.89;103159.44;5008073;28;20083;-87
2022/03/26 10:05:45;;;;;;;25.88;11.93;;;;;;;12.03;53.73;103165.59;5027193;28;20029;-87
2022/03/26 10:08:22;;;;;;;24.55;11.63;;;;;;;12.07;52.97;103163.00;5020438;28;20699;-86
2022/03/26 10:10:48;;;;;;;21.52;11.30;;;;;;;12.12;51.93;103160.44;5026622;28;20025;-87
2022/03/26 10:13:47;;;;;;;25.92;11.55;;;;;;;12.22;54.15;103159.59;5038332;28;20029;-86
2022/03/26 10:16:14;;;;;;;21.17;10.98;;;;;;;12.30;50.57;103157.88;5020392;28;20321;-86
2022/03/26 10:18:41;;;;;;;22.85;11.38;;;;;;;12.35;53.07;103157.03;5035097;28;20569;-86
2022/03/26 10:21:14;;;;;;;21.95;10.95;;;;;;;12.41;52.09;103162.31;5041885;28;20127;-87
2022/03/26 10:23:45;;;;;;;24.90;11.50;;;;;;;12.51;54.49;103160.59;5039526;28;20045;-88
2022/03/26 10:26:11;;;;;;;20.00;9.35;;;;;;;12.55;52.24;103160.59;5016449;28;20376;-88
2022/03/26 10:28:40;;;;;;;21.70;10.13;;;;;;;12.59;50.09;103164.09;5037814;28;20116;-87
2022/03/26 10:34:14;;;;;;;19.55;9.00;;;;;;;12.70;52.19;103153.69;5036851;28;20122;-87
2022/03/26 10:36:42;;;;;;;21.27;9.98;;;;;;;12.73;49.61;103153.69;5018887;28;20404;-86
2022/03/26 10:39:23;;;;;;;24.83;11.07;;;;;;;12.79;51.01;103156.34;5038156;28;20029;-87
2022/03/26 10:41:50;;;;;;;17.75;8.30;;;;;;;12.86;53.54;103155.47;5038889;28;20017;-87
2022/03/26 10:44:24;;;;;;;16.58;8.23;;;;;;;12.90;52.87;103151.09;5040149;28;20029;-87
2022/03/26 10:46:49;;;;;;;13.48;8.25;;;;;;;12.95;53.95;103152.00;5038866;28;20032;-86
2022/03/26 10:49:34;;;;;;;17.50;8.30;;;;;;;12.99;53.29;103145.91;5019906;28;20037;-87
2022/03/26 10:52:12;;;;;;;17.20;9.25;;;;;;;13.02;53.31;103147.63;5038934;28;20056;-87
2022/03/26 10:54:37;;;;;;;13.98;8.10;;;;;;;13.07;55.01;103138.06;5041066;28;20514;-86
2022/03/26 10:57:03;;;;;;;15.45;8.77;;;;;;;13.12;53.88;103149.41;5035446;28;20068;-85
2022/03/26 10:59:30;;;;;;;16.55;9.02;;;;;;;13.15;54.51;103138.06;5036776;28;20021;-85
2022/03/26 11:01:56;;;;;;;16.42;9.43;;;;;;;13.20;53.40;103139.81;5036476;28;20088;-86
2022/03/26 11:04:21;;;;;;;18.02;10.20;;;;;;;13.27;54.35;103137.22;5036399;28;20025;-85
2022/03/26 11:06:48;;;;;;;15.85;8.85;;;;;;;13.34;54.99;103141.53;5039079;28;20479;-86
2022/03/26 11:09:15;;;;;;;14.60;8.98;;;;;;;13.43;52.97;103141.59;5039654;28;20030;-86
2022/03/26 11:11:42;;;;;;;14.30;8.23;;;;;;;13.47;54.38;103132.88;5038572;28;20021;-85
2022/03/26 11:14:22;;;;;;;14.38;8.45;;;;;;;13.54;53.57;103140.69;5039074;28;20037;-87
2022/03/26 11:16:56;;;;;;;15.88;8.30;;;;;;;13.59;53.72;103136.34;5036814;28;20039;-86
2022/03/26 11:19:33;;;;;;;20.15;8.50;;;;;;;13.68;54.57;103125.84;5043434;28;20028;-88